Terminal Aerodrome Forecast
Issued by NWS

Home | Current Version | Previous Version | Text Only | Print | Product List | Glossary On
Versions: 1 2 3 4 5 6 7 8 9 10 11 12 13 14 15 16
000
FTUS44 KOUN 230522
TAFHBR
TAF
KHBR 230522Z 2306/2406 18008KT 5SM BR OVC060
      TEMPO 2306/2310 2SM BR BKN025
     FM231000 18008KT 4SM BR OVC040
      TEMPO 2310/2314 2SM BR BKN020
     FM231700 19011KT P6SM SCT060=

USA.gov is the U.S. government's official web portal to all federal, state and local government web resources and services.